Time;durP1;ratioP1;P1;durP2;ratioP2;P2;SDS_P1;SDS_P2;PMS_P1;PMS_P2;Temp;Humidity;BMP_temperature;BMP_pressure;BME280_temperature;BME280_humidity;BME280_pressure;Samples;Min_cycle;Max_cycle;Signal;HPM_P1;HPM_P2
2021/08/06 00:00:44;;;;;;;4.93;1.63;;;11.20;99.90;10.60;96014.00;;;;5039932;28;20225;-89
2021/08/06 00:03:34;;;;;;;4.40;1.80;;;11.20;99.90;10.80;96016.00;;;;5043036;28;20228;-89
2021/08/06 00:06:27;;;;;;;1.87;1.60;;;11.20;99.90;11.00;96016.00;;;;5048376;28;20828;-87
2021/08/06 00:09:17;;;;;;;1.90;1.73;;;11.30;99.90;10.90;96007.00;;;;5049125;28;20201;-89
2021/08/06 00:12:07;;;;;;;2.73;1.90;;;11.40;99.90;11.00;96007.00;;;;5031207;28;20201;-89
2021/08/06 00:14:56;;;;;;;2.27;1.87;;;11.40;99.90;11.10;96008.00;;;;5030969;28;20201;-88
2021/08/06 00:17:45;;;;;;;4.80;2.00;;;11.50;99.90;11.30;96008.00;;;;5030587;28;20679;-87
2021/08/06 00:20:35;;;;;;;4.57;1.70;;;11.50;99.90;11.20;96003.00;;;;5030667;28;20240;-88
2021/08/06 00:23:24;;;;;;;2.27;2.00;;;11.60;99.90;10.90;96004.00;;;;5037671;28;20304;-88
2021/08/06 00:26:15;;;;;;;2.23;2.03;;;11.60;99.90;11.10;96001.00;;;;5049842;28;20265;-87
2021/08/06 00:29:04;;;;;;;2.23;1.37;;;11.60;99.90;11.20;96004.00;;;;5050369;28;20221;-89
2021/08/06 00:31:53;;;;;;;1.50;1.40;;;11.60;99.90;11.00;95994.00;;;;5049682;28;20212;-87
2021/08/06 00:34:42;;;;;;;2.23;1.80;;;11.60;99.90;10.90;95992.00;;;;5030856;28;20212;-88
2021/08/06 00:37:31;;;;;;;1.90;1.70;;;11.60;99.90;10.90;95986.00;;;;5034963;28;20220;-88
2021/08/06 00:40:22;;;;;;;3.43;1.30;;;11.50;99.90;11.00;95975.00;;;;5030951;28;20227;-87
2021/08/06 00:43:13;;;;;;;1.93;1.73;;;11.60;99.90;11.10;95982.00;;;;5029183;28;20235;-87
2021/08/06 00:46:03;;;;;;;4.57;1.97;;;11.50;99.90;11.20;95988.00;;;;5030615;28;20600;-89
2021/08/06 00:48:53;;;;;;;3.03;1.60;;;11.60;99.90;11.20;95977.00;;;;5030627;28;20211;-90
2021/08/06 00:51:42;;;;;;;1.53;1.23;;;11.60;99.90;11.00;95980.00;;;;5031742;28;20209;-88
2021/08/06 00:54:31;;;;;;;1.43;1.33;;;11.60;99.90;11.10;95971.00;;;;5039639;28;20572;-89
2021/08/06 00:57:20;;;;;;;1.73;1.50;;;11.60;99.90;11.10;95965.00;;;;5049119;28;20614;-88
2021/08/06 01:00:12;;;;;;;5.17;1.50;;;11.60;99.90;10.90;95955.00;;;;5049384;28;20232;-89
2021/08/06 01:03:12;;;;;;;1.60;1.50;;;11.60;99.90;10.90;95954.00;;;;5049522;28;20205;-88
2021/08/06 01:06:15;;;;;;;1.80;1.70;;;11.50;99.90;10.90;95962.00;;;;5049673;28;20298;-88
2021/08/06 01:09:13;;;;;;;1.87;1.53;;;11.50;99.90;10.90;95959.00;;;;5040845;28;20311;-89
2021/08/06 01:12:07;;;;;;;2.57;1.63;;;11.40;99.90;10.80;95952.00;;;;5029968;28;20197;-89
2021/08/06 01:15:02;;;;;;;5.30;1.93;;;11.40;99.90;10.90;95952.00;;;;5029884;28;20597;-88
2021/08/06 01:17:53;;;;;;;3.30;1.67;;;11.40;99.90;10.90;95951.00;;;;5030071;28;20598;-87
2021/08/06 01:20:51;;;;;;;3.00;2.33;;;11.40;99.90;10.90;95956.00;;;;5042126;28;20233;-86
2021/08/06 01:23:42;;;;;;;1.63;1.53;;;11.40;99.90;10.90;95946.00;;;;5039541;28;20205;-88
2021/08/06 01:26:33;;;;;;;1.70;1.60;;;11.40;99.90;10.80;95948.00;;;;5029117;28;20209;-87
2021/08/06 01:29:22;;;;;;;5.43;1.83;;;11.40;99.90;10.90;95957.00;;;;5029665;28;20249;-90
2021/08/06 01:32:11;;;;;;;2.60;1.50;;;11.40;99.90;10.80;95949.00;;;;5044072;28;20256;-89
2021/08/06 01:35:00;;;;;;;1.57;1.43;;;11.40;99.90;10.60;95956.00;;;;5049836;28;20227;-90
2021/08/06 01:37:49;;;;;;;4.90;1.73;;;11.30;99.90;10.50;95958.00;;;;5038290;28;20310;-87
2021/08/06 01:40:46;;;;;;;2.87;1.40;;;11.20;99.90;10.50;95957.00;;;;5028166;28;20225;-91
2021/08/06 01:43:43;;;;;;;1.80;1.60;;;11.20;99.90;10.40;95955.00;;;;5029986;28;20209;-86
2021/08/06 01:46:37;;;;;;;2.40;1.70;;;11.10;99.90;10.60;95962.00;;;;5036250;28;20228;-91
2021/08/06 01:49:32;;;;;;;2.50;2.27;;;11.10;99.90;10.60;95970.00;;;;5038179;28;20697;-87
2021/08/06 01:52:28;;;;;;;7.53;2.20;;;11.10;99.90;10.60;95962.00;;;;5029262;28;20208;-87
2021/08/06 01:55:19;;;;;;;3.80;1.27;;;11.10;99.90;10.50;95966.00;;;;5032599;28;20281;-90
2021/08/06 01:58:12;;;;;;;2.40;2.10;;;11.10;99.90;10.50;95977.00;;;;5036212;28;20209;-89
2021/08/06 02:01:02;;;;;;;3.47;1.77;;;11.10;99.90;10.40;95974.00;;;;5028944;28;20440;-88
2021/08/06 02:03:51;;;;;;;3.20;1.73;;;11.10;99.90;10.40;95977.00;;;;5028225;28;20209;-87
2021/08/06 02:06:43;;;;;;;1.73;1.40;;;11.00;99.90;10.40;95975.00;;;;5029869;28;20217;-89
2021/08/06 02:09:33;;;;;;;2.93;1.40;;;11.00;99.90;10.40;95976.00;;;;5032465;28;20225;-87
2021/08/06 02:12:22;;;;;;;2.17;1.83;;;11.00;99.90;10.50;95991.00;;;;5028134;28;20204;-87
2021/08/06 02:15:12;;;;;;;3.13;1.50;;;11.00;99.90;10.40;95987.00;;;;5042044;28;20216;-89
2021/08/06 02:18:03;;;;;;;1.80;1.70;;;11.00;99.90;10.40;95990.00;;;;5029713;28;20583;-89
2021/08/06 02:20:55;;;;;;;2.97;1.50;;;11.00;99.90;10.40;95985.00;;;;5039715;28;20233;-87
2021/08/06 02:23:48;;;;;;;2.93;1.50;;;11.00;99.90;10.40;95986.00;;;;5033509;28;20226;-89
2021/08/06 02:26:39;;;;;;;2.80;1.40;;;11.00;99.90;10.20;95986.00;;;;5029267;28;20221;-86
2021/08/06 02:29:31;;;;;;;1.53;1.40;;;10.90;99.90;10.10;95991.00;;;;5028695;28;20221;-90
2021/08/06 02:32:20;;;;;;;1.40;1.30;;;10.80;99.90;10.10;95991.00;;;;5042164;28;20208;-87
2021/08/06 02:35:13;;;;;;;6.83;1.50;;;11.00;99.90;10.20;95988.00;;;;5048382;28;20283;-88
2021/08/06 02:38:02;;;;;;;2.10;1.90;;;10.80;99.90;10.30;95994.00;;;;5037093;28;20209;-88
2021/08/06 02:40:52;;;;;;;5.00;1.77;;;10.70;99.90;10.40;95980.00;;;;5026732;28;20221;-88
2021/08/06 02:43:43;;;;;;;2.03;1.83;;;10.80;99.90;10.40;95989.00;;;;5028765;28;20205;-89
2021/08/06 02:46:32;;;;;;;1.30;1.20;;;10.80;99.90;10.10;95981.00;;;;5029185;28;20209;-87
2021/08/06 02:49:21;;;;;;;1.60;1.50;;;10.80;99.90;10.00;95992.00;;;;5036181;28;20209;-88
2021/08/06 02:52:11;;;;;;;1.50;1.40;;;10.80;99.90;10.10;95995.00;;;;5048860;28;20209;-86
2021/08/06 02:55:00;;;;;;;1.90;1.47;;;10.70;99.90;10.20;95997.00;;;;5048474;28;20567;-87
2021/08/06 02:57:49;;;;;;;2.37;1.40;;;10.70;99.90;10.20;95998.00;;;;5047586;28;20625;-87
2021/08/06 03:00:38;;;;;;;1.63;1.53;;;10.70;99.90;10.20;95994.00;;;;5048029;28;20228;-90
2021/08/06 03:03:27;;;;;;;1.50;1.40;;;10.80;99.90;10.10;95994.00;;;;5047946;28;20216;-87
2021/08/06 03:06:16;;;;;;;1.80;1.30;;;10.70;99.90;10.00;95996.00;;;;5047937;28;20232;-87
2021/08/06 03:09:06;;;;;;;1.97;1.30;;;10.70;99.90;10.00;96001.00;;;;5037583;28;20255;-89
2021/08/06 03:11:56;;;;;;;1.50;1.40;;;10.60;99.90;10.10;96004.00;;;;5038481;28;20217;-88
2021/08/06 03:14:45;;;;;;;2.27;1.80;;;10.60;99.90;10.00;95996.00;;;;5051931;28;20201;-87
2021/08/06 03:17:34;;;;;;;1.70;1.60;;;10.60;99.90;9.90;95995.00;;;;5051933;28;20262;-88
2021/08/06 03:20:23;;;;;;;2.97;1.73;;;10.60;99.90;10.10;96001.00;;;;5051042;28;20262;-87
2021/08/06 03:23:12;;;;;;;2.23;1.63;;;10.60;99.90;10.10;95990.00;;;;5051403;28;20212;-87
2021/08/06 03:26:02;;;;;;;5.07;2.27;;;10.60;99.90;10.10;95994.00;;;;5051157;28;20224;-86
2021/08/06 03:28:51;;;;;;;1.60;1.43;;;10.60;99.90;10.10;95992.00;;;;5051052;28;20685;-88
2021/08/06 03:31:40;;;;;;;3.83;1.70;;;10.60;99.90;9.90;95988.00;;;;5049983;28;20670;-89
2021/08/06 03:34:29;;;;;;;1.50;1.30;;;10.60;99.90;9.90;95995.00;;;;5051626;28;20689;-89
2021/08/06 03:37:18;;;;;;;2.17;1.70;;;10.60;99.90;10.00;96002.00;;;;5044634;28;20215;-87
2021/08/06 03:40:09;;;;;;;2.17;1.73;;;10.60;99.90;10.10;96006.00;;;;5031900;28;20606;-88
2021/08/06 03:43:00;;;;;;;4.10;1.70;;;10.60;99.90;10.20;95982.00;;;;5040476;28;20224;-88
2021/08/06 03:45:51;;;;;;;2.97;1.63;;;10.60;99.90;10.10;95997.00;;;;5049661;28;20224;-90
2021/08/06 03:48:40;;;;;;;1.70;1.60;;;10.70;99.90;10.20;95987.00;;;;5049946;28;20201;-86
2021/08/06 03:51:30;;;;;;;2.70;1.23;;;10.70;99.90;10.20;95985.00;;;;5050974;28;20274;-87
2021/08/06 03:54:18;;;;;;;2.23;1.80;;;10.70;99.90;10.10;95992.00;;;;5030093;28;20197;-89
2021/08/06 03:57:08;;;;;;;2.30;1.87;;;10.70;99.90;10.20;96005.00;;;;5027174;28;20581;-89
2021/08/06 03:59:58;;;;;;;3.10;1.83;;;10.70;99.90;10.20;95997.00;;;;5030417;28;20225;-88
2021/08/06 04:02:47;;;;;;;1.80;1.70;;;10.70;99.90;10.40;95997.00;;;;5030329;28;20201;-87
2021/08/06 04:05:37;;;;;;;2.00;1.60;;;10.80;99.90;10.50;95987.00;;;;5039791;28;20236;-87
2021/08/06 04:08:25;;;;;;;4.13;1.30;;;10.80;99.90;10.40;95995.00;;;;5044714;28;20197;-87
2021/08/06 04:11:14;;;;;;;2.57;1.80;;;10.90;99.90;10.40;95999.00;;;;5030769;28;20313;-87
2021/08/06 04:14:03;;;;;;;3.07;1.77;;;10.90;99.90;10.50;95993.00;;;;5029274;28;20295;-90
2021/08/06 04:16:53;;;;;;;2.57;1.80;;;11.00;99.90;10.60;95995.00;;;;5030660;28;20211;-87
2021/08/06 04:19:42;;;;;;;1.40;1.30;;;11.00;99.90;10.70;95994.00;;;;5030491;28;20604;-88
2021/08/06 04:22:31;;;;;;;1.70;1.60;;;11.10;99.90;10.70;95995.00;;;;5028837;28;20209;-87
2021/08/06 04:25:20;;;;;;;1.40;1.30;;;11.20;99.90;10.70;96001.00;;;;5030287;28;20217;-89
2021/08/06 04:28:09;;;;;;;2.67;1.90;;;11.20;99.90;10.70;96001.00;;;;5037514;28;20201;-87
2021/08/06 04:31:00;;;;;;;2.30;1.53;;;11.20;99.90;10.80;95997.00;;;;5047028;28;20228;-86
2021/08/06 04:33:51;;;;;;;1.60;1.50;;;11.30;99.90;10.80;96001.00;;;;5048832;28;20203;-87
2021/08/06 04:36:40;;;;;;;3.00;1.30;;;11.30;99.90;10.90;96011.00;;;;5030839;28;20595;-86
2021/08/06 04:39:29;;;;;;;4.53;2.10;;;11.30;99.90;10.90;95996.00;;;;5042977;28;20221;-87
2021/08/06 04:42:18;;;;;;;4.00;1.47;;;11.40;99.90;10.90;96000.00;;;;5043629;28;20672;-88
2021/08/06 04:45:08;;;;;;;5.10;1.77;;;11.40;99.90;11.00;96007.00;;;;5038154;28;20200;-89
2021/08/06 04:48:00;;;;;;;4.00;1.40;;;11.50;99.90;11.20;96010.00;;;;5038336;28;20677;-89
2021/08/06 04:50:51;;;;;;;2.60;1.90;;;11.60;99.90;11.40;96012.00;;;;5054546;28;20231;-90
2021/08/06 04:53:41;;;;;;;1.50;1.37;;;11.60;99.90;11.40;96024.00;;;;5034214;28;20221;-89
2021/08/06 04:56:30;;;;;;;3.00;1.20;;;11.70;99.90;11.50;96020.00;;;;5031276;28;20585;-87
2021/08/06 04:59:19;;;;;;;1.87;1.40;;;11.80;99.90;11.60;96024.00;;;;5030157;28;20201;-87
2021/08/06 05:02:08;;;;;;;1.70;1.23;;;11.90;99.90;11.70;96032.00;;;;5046700;28;20216;-89
2021/08/06 05:04:57;;;;;;;1.90;1.47;;;12.00;99.90;11.90;96032.00;;;;5030052;28;20205;-89
2021/08/06 05:07:52;;;;;;;1.43;1.17;;;12.10;99.90;12.00;96030.00;;;;5032023;28;20656;-86
2021/08/06 05:10:42;;;;;;;1.67;1.20;;;12.20;99.90;12.10;96044.00;;;;5030278;28;20229;-88
2021/08/06 05:13:31;;;;;;;1.43;1.33;;;12.30;99.90;12.00;96039.00;;;;5030434;28;20209;-89
2021/08/06 05:16:20;;;;;;;1.50;1.27;;;12.40;99.90;12.10;96031.00;;;;5029916;28;20213;-87
2021/08/06 05:19:09;;;;;;;2.03;1.50;;;12.40;99.90;12.40;96034.00;;;;5041393;28;20725;-90
2021/08/06 05:21:58;;;;;;;1.80;1.37;;;12.50;99.90;12.50;96039.00;;;;5029733;28;20212;-87
2021/08/06 05:24:48;;;;;;;2.33;1.60;;;12.60;99.90;12.50;96047.00;;;;5040293;28;20211;-87
2021/08/06 05:27:37;;;;;;;1.20;1.10;;;12.70;99.90;12.40;96043.00;;;;5045124;28;20224;-87
2021/08/06 05:30:27;;;;;;;3.03;1.60;;;12.80;99.90;12.60;96042.00;;;;5042029;28;20211;-87
2021/08/06 05:33:16;;;;;;;2.33;1.27;;;12.80;99.90;12.60;96049.00;;;;5037402;28;20211;-87
2021/08/06 05:36:06;;;;;;;0.80;0.80;;;12.90;99.90;12.40;96060.00;;;;5036041;28;20208;-88
2021/08/06 05:38:55;;;;;;;3.13;1.33;;;12.90;99.90;12.50;96039.00;;;;5044143;28;20208;-87
2021/08/06 05:41:47;;;;;;;1.53;1.33;;;12.90;99.90;12.60;96039.00;;;;5050535;28;20200;-87
2021/08/06 05:44:36;;;;;;;6.43;1.37;;;12.90;99.90;12.90;96049.00;;;;5062387;28;20196;-88
2021/08/06 05:47:25;;;;;;;1.30;1.20;;;13.00;99.90;12.90;96053.00;;;;5054034;28;20606;-87
2021/08/06 05:50:15;;;;;;;1.80;1.20;;;13.10;99.90;13.00;96061.00;;;;5063007;28;20220;-88
2021/08/06 05:53:04;;;;;;;3.30;1.23;;;13.20;99.90;13.10;96064.00;;;;5062784;28;20203;-87
2021/08/06 05:55:53;;;;;;;1.40;1.00;;;13.20;99.90;13.10;96060.00;;;;5056436;28;20628;-88
2021/08/06 05:58:43;;;;;;;1.50;1.03;;;13.40;99.90;13.30;96056.00;;;;5060022;28;20221;-87
2021/08/06 06:01:32;;;;;;;3.97;1.20;;;13.50;99.90;13.30;96056.00;;;;5062258;28;20205;-87
2021/08/06 06:04:21;;;;;;;3.67;1.13;;;13.60;99.90;13.60;96059.00;;;;5063403;28;20577;-87
2021/08/06 06:07:10;;;;;;;2.53;1.30;;;13.80;99.90;13.90;96060.00;;;;5065153;28;20228;-88
2021/08/06 06:09:59;;;;;;;2.50;1.47;;;13.80;99.90;14.20;96050.00;;;;5053689;28;20679;-87
2021/08/06 06:12:49;;;;;;;1.53;1.20;;;14.00;99.90;14.60;96055.00;;;;5036185;28;20229;-87
2021/08/06 06:15:39;;;;;;;4.43;1.60;;;14.30;99.90;14.90;96064.00;;;;5045453;28;20197;-87
2021/08/06 06:18:28;;;;;;;1.53;1.43;;;14.50;99.90;15.20;96063.00;;;;5036307;28;20201;-87
2021/08/06 06:21:17;;;;;;;1.80;1.67;;;14.80;99.90;15.30;96058.00;;;;5035761;28;20228;-86
2021/08/06 06:24:06;;;;;;;4.27;1.83;;;15.10;99.90;15.40;96069.00;;;;5034767;28;20220;-87
2021/08/06 06:26:55;;;;;;;3.27;1.83;;;15.30;99.90;15.60;96063.00;;;;5033124;28;20228;-89
2021/08/06 06:29:44;;;;;;;1.70;1.60;;;15.40;99.90;15.80;96054.00;;;;5033751;28;20221;-86
2021/08/06 06:32:34;;;;;;;2.97;1.43;;;15.60;99.90;15.90;96051.00;;;;5048693;28;20221;-89
2021/08/06 06:35:24;;;;;;;2.73;1.70;;;15.80;99.90;16.10;96050.00;;;;5044062;28;20207;-90
2021/08/06 06:38:13;;;;;;;1.50;1.40;;;15.90;99.90;16.10;96057.00;;;;5048289;28;20208;-87
2021/08/06 06:41:02;;;;;;;7.83;3.17;;;16.00;99.90;16.00;96043.00;;;;5039458;28;20229;-88
2021/08/06 06:43:50;;;;;;;2.17;1.60;;;16.10;99.90;16.10;96046.00;;;;5029566;28;20209;-88
2021/08/06 06:46:39;;;;;;;3.67;1.50;;;16.20;99.90;16.40;96038.00;;;;5032336;28;20221;-86
2021/08/06 06:49:30;;;;;;;2.70;1.90;;;16.30;99.90;16.70;96041.00;;;;5043239;28;20234;-88
2021/08/06 06:52:19;;;;;;;1.87;1.33;;;16.50;99.90;16.80;96034.00;;;;5052945;28;20208;-87
2021/08/06 06:55:10;;;;;;;4.07;1.47;;;16.70;99.90;16.90;96026.00;;;;5053233;28;20211;-88
2021/08/06 06:58:13;;;;;;;2.63;1.47;;;16.80;99.90;17.00;96042.00;;;;5055468;28;20208;-87
2021/08/06 07:01:12;;;;;;;4.60;1.40;;;17.00;99.90;17.00;96050.00;;;;5052570;28;20687;-87
2021/08/06 07:04:01;;;;;;;1.90;1.30;;;17.20;99.90;17.00;96043.00;;;;5052038;28;20204;-89
2021/08/06 07:06:52;;;;;;;5.73;1.43;;;17.20;99.90;17.10;96040.00;;;;5051477;28;20240;-88
2021/08/06 07:09:41;;;;;;;3.60;1.33;;;17.30;99.90;17.50;96051.00;;;;5037049;28;20251;-89
2021/08/06 07:12:30;;;;;;;2.47;1.53;;;17.40;99.90;17.80;96043.00;;;;5033860;28;20617;-88
2021/08/06 07:15:19;;;;;;;3.87;1.30;;;17.60;99.90;18.00;96035.00;;;;5043653;28;20209;-88
2021/08/06 07:18:11;;;;;;;1.90;1.33;;;17.80;99.90;17.90;96046.00;;;;5032126;28;20248;-89
2021/08/06 07:21:01;;;;;;;2.80;1.57;;;18.00;99.90;18.30;96050.00;;;;5031323;28;20761;-90
2021/08/06 07:23:52;;;;;;;3.30;1.30;;;18.10;99.90;18.50;96053.00;;;;5029444;28;20220;-89
2021/08/06 07:26:41;;;;;;;4.17;1.83;;;18.30;99.90;18.70;96045.00;;;;5038468;28;20219;-87
2021/08/06 07:29:30;;;;;;;3.43;1.43;;;18.50;99.90;18.90;96049.00;;;;5051441;28;20342;-88
2021/08/06 07:32:19;;;;;;;2.37;1.40;;;18.70;99.90;19.00;96039.00;;;;5044872;28;20205;-88
2021/08/06 07:35:12;;;;;;;1.20;1.10;;;18.80;99.90;19.20;96035.00;;;;5037204;28;20702;-88
2021/08/06 07:38:01;;;;;;;1.20;1.00;;;19.00;99.90;19.30;96030.00;;;;5035437;28;20209;-88
2021/08/06 07:40:54;;;;;;;3.27;1.20;;;19.20;99.90;19.40;96036.00;;;;5040129;28;20721;-90
2021/08/06 07:43:43;;;;;;;1.67;1.43;;;19.30;99.90;19.70;96030.00;;;;5037375;28;20208;-89
2021/08/06 07:46:32;;;;;;;1.80;1.10;;;19.50;99.90;20.00;96034.00;;;;5033477;28;20208;-90
2021/08/06 07:49:21;;;;;;;5.40;1.27;;;19.60;99.90;20.20;96042.00;;;;5041838;28;20617;-90
2021/08/06 07:52:12;;;;;;;1.70;1.33;;;19.90;99.90;20.40;96043.00;;;;5052389;28;20219;-91
2021/08/06 07:55:01;;;;;;;3.03;0.97;;;20.10;99.90;20.70;96027.00;;;;5053440;28;20201;-91
2021/08/06 07:57:51;;;;;;;1.30;1.20;;;20.30;99.90;20.70;96036.00;;;;5055187;28;20203;-91
2021/08/06 08:00:40;;;;;;;2.67;1.20;;;20.60;99.90;21.00;96040.00;;;;5052321;28;20331;-91
2021/08/06 08:03:52;;;;;;;1.60;1.20;;;20.70;99.90;21.20;96039.00;;;;5045020;28;20238;-90
2021/08/06 08:06:52;;;;;;;1.10;0.90;;;19.80;99.90;21.30;96033.00;;;;5035652;28;20221;-89
2021/08/06 08:09:49;;;;;;;0.77;0.77;;;21.00;99.90;21.60;96035.00;;;;5044044;28;20228;-90
2021/08/06 08:12:41;;;;;;;1.80;1.00;;;21.20;99.90;21.60;96028.00;;;;5037498;28;20212;-90
2021/08/06 08:15:39;;;;;;;1.10;0.97;;;21.40;99.90;21.70;96032.00;;;;5032890;28;20262;-89
2021/08/06 08:18:39;;;;;;;0.87;0.80;;;21.50;99.90;21.90;96029.00;;;;5036084;28;20212;-90
2021/08/06 08:21:31;;;;;;;1.40;0.90;;;21.70;99.90;22.00;96022.00;;;;5031505;28;20225;-89
2021/08/06 08:24:27;;;;;;;0.90;0.77;;;21.70;99.90;22.00;96029.00;;;;5030772;28;20229;-90
2021/08/06 08:27:19;;;;;;;0.80;0.60;;;23.00;99.90;22.30;96021.00;;;;5043943;28;20601;-89
2021/08/06 08:30:14;;;;;;;1.60;0.90;;;22.00;99.90;22.70;96018.00;;;;5047900;28;20651;-90
2021/08/06 08:33:24;;;;;;;1.27;0.77;;;22.20;99.90;22.90;96026.00;;;;5035397;28;20193;-89
2021/08/06 08:36:17;;;;;;;1.53;0.70;;;21.70;99.90;23.10;96015.00;;;;5038357;28;20200;-89
2021/08/06 08:39:25;;;;;;;2.20;0.87;;;22.60;99.90;23.20;96015.00;;;;5036261;28;20678;-90
2021/08/06 08:42:46;;;;;;;2.23;0.90;;;22.80;99.90;23.40;96005.00;;;;5033940;28;20205;-90
2021/08/06 08:45:40;;;;;;;2.33;0.80;;;23.00;99.90;23.50;95997.00;;;;5041293;28;20201;-90
2021/08/06 08:48:39;;;;;;;1.07;0.70;;;23.20;99.90;23.80;96000.00;;;;5050052;28;20322;-89
2021/08/06 08:51:36;;;;;;;1.67;0.93;;;23.40;99.90;24.00;96012.00;;;;5050494;28;20223;-90
2021/08/06 08:54:28;;;;;;;3.53;0.90;;;23.60;98.40;24.20;96000.00;;;;5032913;28;20209;-91
2021/08/06 08:57:28;;;;;;;2.10;0.80;;;22.70;97.30;24.60;96009.00;;;;5031185;28;20208;-92
2021/08/06 09:00:18;;;;;;;2.17;0.90;;;23.90;96.50;25.00;96002.00;;;;5042518;28;20221;-91
2021/08/06 09:03:07;;;;;;;1.20;1.10;;;24.20;94.60;24.60;96023.00;;;;5044758;28;20576;-92
2021/08/06 09:07:06;;;;;;;4.30;1.30;;;24.50;91.60;24.20;95995.00;;;;5051179;28;20654;-92
2021/08/06 09:10:35;;;;;;;2.93;0.90;;;24.50;90.20;23.50;96020.00;;;;4976067;28;20287;-91
2021/08/06 09:13:41;;;;;;;2.33;1.30;;;22.80;80.00;23.40;96003.00;;;;5046833;28;20658;-92
2021/08/06 09:16:39;;;;;;;0.60;0.60;;;24.00;84.80;23.60;96022.00;;;;5048178;28;20224;-91
2021/08/06 09:19:42;;;;;;;1.20;0.93;;;23.90;83.30;23.70;96027.00;;;;5042826;28;20604;-91
2021/08/06 09:22:58;;;;;;;0.90;0.83;;;23.80;84.50;23.50;96031.00;;;;5045772;28;20262;-92
2021/08/06 09:25:47;;;;;;;0.90;0.90;;;23.70;83.20;23.50;96020.00;;;;5039550;28;20215;-88
2021/08/06 09:29:03;;;;;;;1.20;0.87;;;23.70;88.10;24.70;96027.00;;;;5046028;28;20221;-89
2021/08/06 09:31:59;;;;;;;1.10;1.00;;;24.00;90.20;24.60;96045.00;;;;5034836;28;20210;-87
2021/08/06 09:35:16;;;;;;;1.10;1.00;;;24.10;90.10;24.50;96039.00;;;;5037477;28;20221;-92
2021/08/06 09:38:28;;;;;;;0.87;0.87;;;24.40;90.40;23.70;96042.00;;;;5041721;28;20220;-90
2021/08/06 09:41:52;;;;;;;2.27;1.10;;;24.20;84.40;23.70;96042.00;;;;5034234;28;20222;-92
2021/08/06 09:44:52;;;;;;;1.00;0.90;;;23.50;85.60;23.00;96046.00;;;;5032143;28;20213;-91
2021/08/06 09:47:59;;;;;;;3.13;1.00;;;23.70;83.30;23.90;96010.00;;;;5032564;28;20200;-92
2021/08/06 09:50:58;;;;;;;1.00;0.90;;;23.70;88.90;24.60;96019.00;;;;5048955;28;20240;-94
2021/08/06 09:53:53;;;;;;;1.40;1.30;;;24.00;87.00;24.60;96022.00;;;;5053462;28;20721;-89
2021/08/06 09:56:43;;;;;;;1.80;1.17;;;24.30;91.40;24.90;96015.00;;;;5050783;28;20248;-91
2021/08/06 09:59:36;;;;;;;1.40;1.00;;;24.60;85.00;25.80;96007.00;;;;5029500;28;20241;-90
2021/08/06 10:02:28;;;;;;;3.20;1.00;;;25.00;85.80;26.60;96017.00;;;;5023251;28;20232;-89
2021/08/06 10:05:20;;;;;;;1.23;1.10;;;25.50;86.20;26.90;96005.00;;;;5034484;28;20244;-87
2021/08/06 10:08:09;;;;;;;5.00;2.50;;;26.00;82.60;27.10;95998.00;;;;5042420;28;20247;-89
2021/08/06 10:11:00;;;;;;;3.20;1.80;;;26.40;81.80;27.90;95997.00;;;;5038360;28;20238;-87
2021/08/06 10:13:50;;;;;;;2.70;1.63;;;26.80;81.60;27.90;96025.00;;;;5040117;28;20243;-88
2021/08/06 10:16:39;;;;;;;1.93;1.50;;;27.10;77.00;27.50;95994.00;;;;5043779;28;20232;-88
2021/08/06 10:19:30;;;;;;;3.93;2.63;;;27.30;77.10;27.30;96031.00;;;;5054525;28;20234;-88
2021/08/06 10:22:20;;;;;;;4.17;2.10;;;27.30;74.10;26.90;96038.00;;;;5028785;28;20345;-87
2021/08/06 10:25:12;;;;;;;2.43;1.63;;;27.10;69.50;26.90;96038.00;;;;5026711;28;20228;-88
2021/08/06 10:28:05;;;;;;;1.43;1.00;;;27.00;72.00;26.70;96036.00;;;;5046966;27;20251;-87
2021/08/06 10:31:17;;;;;;;2.33;1.60;;;26.80;70.90;25.60;96044.00;;;;5037652;28;20243;-88
2021/08/06 10:34:08;;;;;;;7.80;3.13;;;26.50;68.80;25.80;96028.00;;;;5044686;28;20325;-88
2021/08/06 10:36:57;;;;;;;6.30;1.90;;;26.20;70.90;25.80;96037.00;;;;5041098;28;20253;-88
2021/08/06 10:39:46;;;;;;;1.67;1.10;;;26.00;72.90;25.80;96041.00;;;;5028720;28;20243;-88
2021/08/06 10:42:35;;;;;;;1.33;1.23;;;25.80;73.90;25.60;96044.00;;;;5031563;28;20244;-88
2021/08/06 10:45:56;;;;;;;1.30;1.10;;;25.80;72.90;25.50;96052.00;;;;5028387;28;20336;-89
2021/08/06 10:48:46;;;;;;;1.60;1.33;;;25.60;73.50;24.80;96046.00;;;;5030916;28;20291;-89
2021/08/06 10:51:37;;;;;;;2.40;1.20;;;25.40;72.90;24.40;96049.00;;;;5030613;28;20234;-88
2021/08/06 10:54:29;;;;;;;1.53;1.17;;;25.10;71.30;24.20;96041.00;;;;5041655;28;20219;-88
2021/08/06 10:57:30;;;;;;;3.03;1.20;;;24.80;74.80;24.00;96034.00;;;;5050717;28;20199;-88
2021/08/06 11:00:37;;;;;;;5.83;2.00;;;24.50;80.00;24.10;96049.00;;;;5050683;28;20732;-88
2021/08/06 11:03:36;;;;;;;1.90;1.73;;;24.40;81.60;23.70;96050.00;;;;5047227;28;20233;-88
2021/08/06 11:06:41;;;;;;;1.70;1.47;;;24.10;78.60;23.60;96061.00;;;;5031241;28;20233;-88
2021/08/06 11:09:42;;;;;;;3.00;1.20;;;23.90;79.60;24.10;96039.00;;;;5037224;28;20241;-88
2021/08/06 11:12:32;;;;;;;2.87;1.33;;;23.90;81.80;24.60;96005.00;;;;5041660;28;20594;-90
2021/08/06 11:15:21;;;;;;;2.33;1.33;;;24.20;84.30;24.90;96014.00;;;;5050738;28;20587;-91
2021/08/06 11:18:12;;;;;;;1.70;1.60;;;24.60;86.30;25.40;96003.00;;;;5051959;28;20222;-94
2021/08/06 11:21:01;;;;;;;2.60;1.27;;;24.90;83.50;26.00;96034.00;;;;5036966;28;20224;-91
2021/08/06 11:23:57;;;;;;;2.53;1.17;;;25.30;84.30;26.60;95970.00;;;;5049222;28;20203;-93
2021/08/06 11:26:54;;;;;;;3.20;1.57;;;25.60;83.30;28.30;96001.00;;;;5033310;28;20238;-95
2021/08/06 11:29:44;;;;;;;1.60;1.30;;;26.50;84.60;28.30;96010.00;;;;5034638;28;20285;-91
2021/08/06 11:32:55;;;;;;;1.00;1.00;;;27.00;80.90;27.50;96024.00;;;;5046371;28;20228;-88
2021/08/06 11:35:47;;;;;;;2.57;1.60;;;27.20;77.30;27.40;96023.00;;;;5044967;28;20209;-86
2021/08/06 11:38:40;;;;;;;2.90;1.50;;;27.20;75.50;27.70;96011.00;;;;5040787;28;20209;-90
2021/08/06 11:41:32;;;;;;;1.97;1.40;;;27.20;76.80;28.90;96010.00;;;;5059421;28;20232;-89
2021/08/06 11:44:24;;;;;;;4.03;1.65;;;27.70;76.80;28.90;96037.00;;;;5053135;28;20200;-89
2021/08/06 11:47:14;;;;;;;2.13;1.70;;;28.00;76.50;28.20;96041.00;;;;5049760;28;20856;-88
2021/08/06 11:50:06;;;;;;;1.77;1.50;;;26.90;72.90;27.70;96034.00;;;;5059006;28;20236;-89
2021/08/06 11:53:01;;;;;;;1.80;1.70;;;27.90;71.60;28.60;96035.00;;;;5045588;28;20211;-91
2021/08/06 11:55:58;;;;;;;3.33;1.15;;;28.10;70.50;27.90;96007.00;;;;5046409;28;20220;-90
2021/08/06 11:58:49;;;;;;;1.95;1.58;;;28.00;68.80;28.10;95991.00;;;;5041864;28;20221;-90
2021/08/06 12:01:38;;;;;;;1.67;1.58;;;28.00;67.90;28.50;96018.00;;;;5048762;28;20204;-88
2021/08/06 12:04:28;;;;;;;2.15;1.60;;;28.00;67.70;29.30;96021.00;;;;5056853;28;20203;-89
2021/08/06 12:07:25;;;;;;;1.80;1.30;;;28.30;66.00;28.10;96008.00;;;;5051816;28;20203;-93
2021/08/06 12:10:16;;;;;;;2.50;1.40;;;28.20;66.40;28.80;96016.00;;;;5050634;28;20727;-89
2021/08/06 12:13:11;;;;;;;2.20;1.10;;;28.60;64.40;28.20;96027.00;;;;5055020;28;20195;-91
2021/08/06 12:16:13;;;;;;;6.18;1.55;;;28.40;65.00;27.70;96031.00;;;;5048345;28;20231;-92
2021/08/06 12:19:08;;;;;;;2.78;1.60;;;27.70;63.00;27.40;96036.00;;;;5050187;28;20217;-93
2021/08/06 12:22:05;;;;;;;2.63;1.20;;;27.80;61.40;27.30;96030.00;;;;5046553;28;20637;-92
2021/08/06 12:25:14;;;;;;;1.50;1.40;;;27.60;64.00;27.00;96032.00;;;;5050603;28;20227;-90
2021/08/06 12:28:06;;;;;;;1.93;1.37;;;27.30;64.80;26.90;96037.00;;;;5052935;28;20198;-90
2021/08/06 12:31:21;;;;;;;1.83;1.50;;;27.10;66.70;26.40;96040.00;;;;5051474;28;20845;-90
2021/08/06 12:34:22;;;;;;;3.13;1.47;;;26.80;67.70;26.00;96050.00;;;;5057962;28;20204;-89
2021/08/06 12:37:16;;;;;;;1.80;1.70;;;26.50;68.50;25.70;96054.00;;;;5052405;28;20214;-90
2021/08/06 12:40:07;;;;;;;1.40;1.30;;;26.30;71.30;25.50;96057.00;;;;5054136;28;20276;-89
2021/08/06 12:42:56;;;;;;;2.37;1.00;;;25.50;69.10;25.10;96072.00;;;;5053036;28;20696;-90
2021/08/06 12:46:11;;;;;;;1.50;1.10;;;25.70;70.90;24.80;96085.00;;;;5057021;28;20209;-89
2021/08/06 12:49:05;;;;;;;2.60;0.87;;;25.40;71.20;24.60;96080.00;;;;5052764;28;20216;-89